createdAt,value
2022-08-16T00:01:24.392Z,99.10
2022-08-16T00:03:54.159Z,98.90
2022-08-16T00:06:22.587Z,98.70
2022-08-16T00:08:50.446Z,98.80
2022-08-16T00:11:21.079Z,99.10
2022-08-16T00:13:53.586Z,99.40
2022-08-16T00:17:01.376Z,99.30
2022-08-16T00:19:28.362Z,99.40
2022-08-16T00:22:01.542Z,99.60
2022-08-16T00:24:31.275Z,99.90
2022-08-16T00:27:02.292Z,99.60
2022-08-16T00:29:30.639Z,99.60
2022-08-16T00:32:05.735Z,99.70
2022-08-16T00:34:44.401Z,99.90
2022-08-16T00:37:24.698Z,99.90
2022-08-16T00:39:57.413Z,99.80
2022-08-16T00:42:32.194Z,99.60
2022-08-16T00:45:14.476Z,99.30
2022-08-16T00:47:49.086Z,99.00
2022-08-16T00:50:35.995Z,98.80
2022-08-16T00:53:08.229Z,98.80
2022-08-16T00:55:39.095Z,98.70
2022-08-16T00:58:12.994Z,98.60
2022-08-16T01:00:54.335Z,98.40
2022-08-16T01:03:30.003Z,98.30
2022-08-16T01:05:57.806Z,98.20
2022-08-16T01:08:35.838Z,98.40
2022-08-16T01:11:06.495Z,98.30
2022-08-16T01:13:37.548Z,98.30
2022-08-16T01:16:13.995Z,98.30
2022-08-16T01:19:19.504Z,98.40
2022-08-16T01:22:48.029Z,98.50
2022-08-16T01:25:09.956Z,99.10
2022-08-16T01:27:48.532Z,98.80
2022-08-16T01:30:26.419Z,99.10
2022-08-16T01:33:02.580Z,99.00
2022-08-16T01:36:12.077Z,99.20
2022-08-16T01:38:49.166Z,99.30
2022-08-16T01:41:30.588Z,99.40
2022-08-16T01:44:00.914Z,99.90
2022-08-16T01:46:40.786Z,99.90
2022-08-16T01:49:19.066Z,99.90
2022-08-16T01:51:52.056Z,99.90
2022-08-16T01:54:30.567Z,99.80
2022-08-16T01:57:00.223Z,99.80
2022-08-16T01:59:30.021Z,99.70
2022-08-16T02:01:59.981Z,99.70
2022-08-16T02:04:40.067Z,99.60
2022-08-16T02:07:18.571Z,99.40
2022-08-16T02:09:57.138Z,99.50
2022-08-16T02:12:50.125Z,99.50
2022-08-16T02:15:15.714Z,99.50
2022-08-16T02:17:43.234Z,99.50
2022-08-16T02:20:11.935Z,99.60
2022-08-16T02:22:39.755Z,99.40
2022-08-16T02:25:14.664Z,99.20
2022-08-16T02:27:50.656Z,99.40
2022-08-16T02:30:37.229Z,99.50
2022-08-16T02:33:12.207Z,99.60
2022-08-16T02:35:53.922Z,99.70
2022-08-16T02:38:22.833Z,99.80
2022-08-16T02:40:51.936Z,99.80
2022-08-16T02:43:26.664Z,99.60
2022-08-16T02:45:55.613Z,99.70
2022-08-16T02:48:29.805Z,99.70
2022-08-16T02:51:10.518Z,99.80
2022-08-16T02:53:43.949Z,99.80
2022-08-16T02:56:18.031Z,99.80
2022-08-16T02:58:47.662Z,99.70
2022-08-16T03:01:24.736Z,99.50
2022-08-16T03:04:30.188Z,99.70
2022-08-16T03:06:56.656Z,99.70
2022-08-16T03:09:28.563Z,99.60
2022-08-16T03:11:57.135Z,99.90
2022-08-16T03:14:25.229Z,99.40
2022-08-16T03:16:59.482Z,99.60
2022-08-16T03:19:48.466Z,99.80
2022-08-16T03:22:28.997Z,99.80
2022-08-16T03:25:02.000Z,99.50
2022-08-16T03:27:32.191Z,99.40
2022-08-16T03:30:15.886Z,99.20
2022-08-16T03:32:45.810Z,99.30
2022-08-16T03:35:17.637Z,99.20
2022-08-16T03:38:01.657Z,99.20
2022-08-16T03:40:37.149Z,99.10
2022-08-16T03:43:19.651Z,99.10
2022-08-16T03:45:49.499Z,99.10
2022-08-16T03:48:36.182Z,99.30
2022-08-16T03:51:12.380Z,99.20
2022-08-16T03:53:41.296Z,99.10
2022-08-16T03:56:20.783Z,99.00
2022-08-16T03:58:50.880Z,98.70
2022-08-16T04:01:22.269Z,98.50
2022-08-16T04:03:51.235Z,98.30
2022-08-16T04:06:21.032Z,98.10
2022-08-16T04:08:48.777Z,98.00
2022-08-16T04:11:17.174Z,97.70
2022-08-16T04:13:59.224Z,97.90
2022-08-16T04:16:32.370Z,98.20
2022-08-16T04:19:04.445Z,97.90
2022-08-16T04:21:46.193Z,98.00
2022-08-16T04:24:14.901Z,97.70
2022-08-16T04:26:46.549Z,97.30
2022-08-16T04:29:23.659Z,97.70
2022-08-16T04:31:56.116Z,97.70
2022-08-16T04:34:29.064Z,97.40
2022-08-16T04:37:01.073Z,97.10
2022-08-16T04:39:45.897Z,97.40
2022-08-16T04:42:18.956Z,97.00
2022-08-16T04:44:56.069Z,97.60
2022-08-16T04:47:31.485Z,97.00
2022-08-16T04:50:00.734Z,96.80
2022-08-16T04:52:34.130Z,97.30
2022-08-16T04:55:09.898Z,97.40
2022-08-16T04:57:41.258Z,97.20
2022-08-16T05:00:32.609Z,96.70
2022-08-16T05:03:12.673Z,97.10
2022-08-16T05:05:45.336Z,97.60
2022-08-16T05:08:29.232Z,96.90
2022-08-16T05:11:08.245Z,96.80
2022-08-16T05:13:42.414Z,96.70
2022-08-16T05:16:21.549Z,97.10
2022-08-16T05:18:52.816Z,97.00
2022-08-16T05:21:21.644Z,97.50
2022-08-16T05:23:58.724Z,96.80
2022-08-16T05:26:32.898Z,97.10
2022-08-16T05:29:03.680Z,97.80
2022-08-16T05:31:32.106Z,96.60
2022-08-16T05:34:04.305Z,97.00
2022-08-16T05:36:34.230Z,96.70
2022-08-16T05:39:09.717Z,96.30
2022-08-16T05:41:45.549Z,95.80
2022-08-16T05:44:23.804Z,95.90
2022-08-16T05:47:00.141Z,95.50
2022-08-16T05:49:38.280Z,95.50
2022-08-16T05:52:11.761Z,95.50
2022-08-16T05:54:47.123Z,95.50
2022-08-16T05:57:18.511Z,95.80
2022-08-16T05:59:50.559Z,96.00
2022-08-16T06:02:43.451Z,95.50
2022-08-16T06:05:11.528Z,95.40
2022-08-16T06:07:41.740Z,95.60
2022-08-16T06:10:11.405Z,95.40
2022-08-16T06:12:39.776Z,95.70
2022-08-16T06:15:16.509Z,94.60
2022-08-16T06:17:45.357Z,94.80
2022-08-16T06:20:23.953Z,95.30
2022-08-16T06:22:58.929Z,94.70
2022-08-16T06:25:36.611Z,94.90
2022-08-16T06:28:08.392Z,94.50
2022-08-16T06:30:43.736Z,93.70
2022-08-16T06:33:22.229Z,93.40
2022-08-16T06:35:54.792Z,93.80
2022-08-16T06:38:33.496Z,93.50
2022-08-16T06:41:13.509Z,94.00
2022-08-16T06:43:41.847Z,93.10
2022-08-16T06:46:34.219Z,93.50
2022-08-16T06:49:05.197Z,92.80
2022-08-16T06:51:45.681Z,92.80
2022-08-16T06:54:15.472Z,93.20
2022-08-16T06:56:42.768Z,92.80
2022-08-16T06:59:12.218Z,93.40
2022-08-16T07:01:45.072Z,92.60
2022-08-16T07:04:32.427Z,93.20
2022-08-16T07:07:02.878Z,93.10
2022-08-16T07:09:30.715Z,93.10
2022-08-16T07:12:03.899Z,93.20
2022-08-16T07:14:35.836Z,92.70
2022-08-16T07:17:03.530Z,92.90
2022-08-16T07:20:03.260Z,92.40
2022-08-16T07:22:36.751Z,92.20
2022-08-16T07:25:12.493Z,93.40
2022-08-16T07:27:41.027Z,93.00
2022-08-16T07:30:40.438Z,92.60
2022-08-16T07:32:59.803Z,92.90
2022-08-16T07:35:27.412Z,93.00
2022-08-16T07:37:54.961Z,93.10
2022-08-16T07:40:36.909Z,92.50
2022-08-16T07:43:09.940Z,92.80
2022-08-16T07:45:38.873Z,93.30
2022-08-16T07:48:11.053Z,92.70
2022-08-16T07:50:56.041Z,92.40
2022-08-16T07:53:28.988Z,92.70
2022-08-16T07:55:58.095Z,93.80
2022-08-16T07:58:33.967Z,92.70
2022-08-16T08:01:10.911Z,91.30
2022-08-16T08:03:49.302Z,91.40
2022-08-16T08:06:25.109Z,91.80
2022-08-16T08:08:57.224Z,90.50
2022-08-16T08:11:28.197Z,90.80
2022-08-16T08:13:57.647Z,90.70
2022-08-16T08:16:32.545Z,91.30
2022-08-16T08:19:02.697Z,90.70
2022-08-16T08:21:58.545Z,90.00
2022-08-16T08:24:21.230Z,90.30
2022-08-16T08:26:50.139Z,90.50
2022-08-16T08:29:23.043Z,88.90
2022-08-16T08:31:53.842Z,89.10
2022-08-16T08:34:23.053Z,87.90
2022-08-16T08:36:54.554Z,88.70
2022-08-16T08:39:25.201Z,87.30
2022-08-16T08:41:52.497Z,89.50
2022-08-16T08:44:29.291Z,87.10
2022-08-16T08:47:10.968Z,88.10
2022-08-16T08:49:46.046Z,87.50
2022-08-16T08:52:34.441Z,85.50
2022-08-16T08:55:12.847Z,87.10
2022-08-16T08:57:43.205Z,86.20
2022-08-16T09:00:21.278Z,88.10
2022-08-16T09:02:51.898Z,85.00
2022-08-16T09:05:23.303Z,85.70
2022-08-16T09:08:06.034Z,83.70
2022-08-16T09:10:33.873Z,82.10
2022-08-16T09:13:08.022Z,82.80
2022-08-16T09:15:37.883Z,83.40
2022-08-16T09:18:26.605Z,81.50
2022-08-16T09:20:58.720Z,82.10
2022-08-16T09:23:36.501Z,81.10
2022-08-16T09:26:44.052Z,81.50
2022-08-16T09:29:16.675Z,80.60
2022-08-16T09:31:46.647Z,81.90
2022-08-16T09:34:19.172Z,81.60
2022-08-16T09:36:46.737Z,80.00
2022-08-16T09:39:18.296Z,80.90
2022-08-16T09:41:53.830Z,81.10
2022-08-16T09:45:11.179Z,79.90
2022-08-16T09:47:14.010Z,77.00
2022-08-16T09:49:41.669Z,78.80
2022-08-16T09:52:10.545Z,76.10
2022-08-16T09:54:38.871Z,77.10
2022-08-16T09:57:12.139Z,78.50
2022-08-16T09:59:42.148Z,79.00
2022-08-16T10:02:26.455Z,79.20
2022-08-16T10:04:57.462Z,77.50
2022-08-16T10:07:43.970Z,78.40
2022-08-16T10:10:19.006Z,78.70
2022-08-16T10:13:14.292Z,76.90
2022-08-16T10:15:54.841Z,76.40
2022-08-16T10:19:00.676Z,75.50
2022-08-16T10:21:10.988Z,75.30
2022-08-16T10:23:40.476Z,75.50
2022-08-16T10:27:16.757Z,75.00
2022-08-16T10:28:57.830Z,76.00
2022-08-16T10:31:44.195Z,75.50
2022-08-16T10:34:31.258Z,74.30
2022-08-16T10:37:03.330Z,72.60
2022-08-16T10:39:40.832Z,72.80
2022-08-16T10:42:13.243Z,71.60
2022-08-16T10:44:42.309Z,73.30
2022-08-16T10:47:10.133Z,72.40
2022-08-16T10:49:39.179Z,72.80
2022-08-16T10:52:17.986Z,72.80
2022-08-16T10:57:34.781Z,71.60
2022-08-16T11:00:21.497Z,70.90
2022-08-16T11:02:57.481Z,71.50
2022-08-16T11:05:59.113Z,71.50
2022-08-16T11:08:18.061Z,71.50
2022-08-16T11:11:10.586Z,72.00
2022-08-16T11:14:05.849Z,70.40
2022-08-16T11:19:20.827Z,69.40
2022-08-16T11:24:44.638Z,69.20
2022-08-16T11:27:23.390Z,68.70
2022-08-16T11:29:56.651Z,67.90
2022-08-16T11:32:31.773Z,68.30
2022-08-16T11:35:13.968Z,69.50
2022-08-16T11:38:23.530Z,68.10
2022-08-16T11:40:58.762Z,67.10
2022-08-16T11:43:30.687Z,67.60
2022-08-16T11:46:01.563Z,68.10
2022-08-16T11:48:48.620Z,67.50
2022-08-16T11:51:15.765Z,66.20
2022-08-16T11:53:42.898Z,65.70
2022-08-16T11:56:10.121Z,66.50
2022-08-16T11:58:42.085Z,64.50
2022-08-16T12:01:10.588Z,65.90
2022-08-16T12:03:41.780Z,65.80
2022-08-16T12:06:25.401Z,64.10
2022-08-16T12:09:00.990Z,63.50
2022-08-16T12:11:31.667Z,64.20
2022-08-16T12:14:01.867Z,63.80
2022-08-16T12:16:34.323Z,64.10
2022-08-16T12:19:10.697Z,62.40
2022-08-16T12:21:58.629Z,61.60
2022-08-16T12:24:27.685Z,60.80
2022-08-16T12:26:56.385Z,63.90
2022-08-16T12:29:25.849Z,63.50
2022-08-16T12:32:01.301Z,63.90
2022-08-16T12:34:47.935Z,62.10
2022-08-16T12:37:24.754Z,63.50
2022-08-16T12:39:56.067Z,62.60
2022-08-16T12:42:34.377Z,63.40
2022-08-16T12:45:07.193Z,59.60
2022-08-16T12:48:10.004Z,60.10
2022-08-16T12:50:41.884Z,61.70
2022-08-16T12:53:09.570Z,61.50
2022-08-16T12:55:42.223Z,61.30
2022-08-16T12:58:14.091Z,58.50
2022-08-16T13:01:00.758Z,60.20
2022-08-16T13:03:29.000Z,60.60
2022-08-16T13:06:00.613Z,59.70
2022-08-16T13:08:33.280Z,58.10
2022-08-16T13:11:01.921Z,59.30
2022-08-16T13:13:29.628Z,57.70
2022-08-16T13:16:15.516Z,57.60
2022-08-16T13:18:52.527Z,57.20
2022-08-16T13:21:23.367Z,56.60
2022-08-16T13:23:53.539Z,57.80
2022-08-16T13:26:26.341Z,56.30
2022-08-16T13:28:54.439Z,55.00
2022-08-16T13:31:21.907Z,53.00
2022-08-16T13:33:54.521Z,54.70
2022-08-16T13:36:47.922Z,56.20
2022-08-16T13:39:14.012Z,57.40
2022-08-16T13:41:41.387Z,55.80
2022-08-16T13:44:09.423Z,55.70
2022-08-16T13:49:06.009Z,54.00
2022-08-16T13:51:33.234Z,54.90
2022-08-16T13:54:03.826Z,54.70
2022-08-16T13:56:37.692Z,55.30
2022-08-16T13:59:20.470Z,53.40
2022-08-16T14:01:56.662Z,53.60
2022-08-16T14:04:31.229Z,55.30
2022-08-16T14:07:00.935Z,53.80
2022-08-16T14:09:30.583Z,54.20
2022-08-16T14:12:01.097Z,54.80
2022-08-16T14:14:32.547Z,53.30
2022-08-16T14:17:09.680Z,52.50
2022-08-16T14:19:37.155Z,52.50
2022-08-16T14:22:40.046Z,53.10
2022-08-16T14:25:16.366Z,52.80
2022-08-16T14:27:44.129Z,52.80
2022-08-16T14:30:15.552Z,52.20
2022-08-16T14:32:46.959Z,52.10
2022-08-16T14:35:36.713Z,51.30
2022-08-16T14:38:13.508Z,52.70
2022-08-16T14:40:53.196Z,51.50
2022-08-16T14:43:24.657Z,50.20
2022-08-16T14:45:54.772Z,49.30
2022-08-16T14:48:26.278Z,50.60
2022-08-16T14:50:55.502Z,48.40
2022-08-16T14:53:24.698Z,49.60
2022-08-16T14:55:53.677Z,50.80
2022-08-16T14:58:35.147Z,50.10
2022-08-16T15:01:09.721Z,50.80
2022-08-16T15:03:37.827Z,50.20
2022-08-16T15:06:05.746Z,51.60
2022-08-16T15:08:36.341Z,51.30
2022-08-16T15:11:06.117Z,51.10
2022-08-16T15:13:35.979Z,51.10
2022-08-16T15:16:04.827Z,51.00
2022-08-16T15:18:33.539Z,51.50
2022-08-16T15:21:02.573Z,50.70
2022-08-16T15:23:33.929Z,50.50
2022-08-16T15:26:03.982Z,49.90
2022-08-16T15:28:33.810Z,50.50
2022-08-16T15:31:03.260Z,49.90
2022-08-16T15:33:33.524Z,51.00
2022-08-16T15:36:04.787Z,50.40
2022-08-16T15:38:56.825Z,50.40
2022-08-16T15:41:49.560Z,50.60
2022-08-16T15:44:23.709Z,51.00
2022-08-16T15:46:58.965Z,50.70
2022-08-16T15:49:37.613Z,49.50
2022-08-16T15:52:11.405Z,49.50
2022-08-16T15:54:52.697Z,49.80
2022-08-16T15:57:24.218Z,48.90
2022-08-16T15:59:55.779Z,50.50
2022-08-16T16:02:31.009Z,50.60
2022-08-16T16:05:04.835Z,51.10
2022-08-16T16:07:34.045Z,52.50
2022-08-16T16:10:07.853Z,51.90
2022-08-16T16:12:53.087Z,51.40
2022-08-16T16:15:32.061Z,51.70
2022-08-16T16:17:59.671Z,53.60
2022-08-16T16:20:39.167Z,54.30
2022-08-16T16:23:11.132Z,52.70
2022-08-16T16:25:43.875Z,52.30
2022-08-16T16:29:05.541Z,54.40
2022-08-16T16:31:09.089Z,54.10
2022-08-16T16:33:41.993Z,51.20
2022-08-16T16:36:19.313Z,52.30
2022-08-16T16:38:48.938Z,52.10
2022-08-16T16:41:22.842Z,52.00
2022-08-16T16:43:53.463Z,51.90
2022-08-16T16:46:42.112Z,52.90
2022-08-16T16:49:14.128Z,52.70
2022-08-16T16:51:44.514Z,52.80
2022-08-16T16:54:13.289Z,53.70
2022-08-16T16:56:50.238Z,54.60
2022-08-16T16:59:20.097Z,54.00
2022-08-16T17:01:59.659Z,54.20
2022-08-16T17:04:37.045Z,53.70
2022-08-16T17:07:10.643Z,54.50
2022-08-16T17:09:40.578Z,54.90
2022-08-16T17:12:20.085Z,55.40
2022-08-16T17:14:57.714Z,56.50
2022-08-16T17:17:27.250Z,56.20
2022-08-16T17:19:56.834Z,56.90
2022-08-16T17:22:32.736Z,56.50
2022-08-16T17:25:15.008Z,57.00
2022-08-16T17:27:43.264Z,57.00
2022-08-16T17:30:29.509Z,57.30
2022-08-16T17:33:13.282Z,58.60
2022-08-16T17:35:55.294Z,57.40
2022-08-16T17:38:44.123Z,58.20
2022-08-16T17:41:15.538Z,58.30
2022-08-16T17:43:45.040Z,58.80
2022-08-16T17:46:41.769Z,59.20
2022-08-16T17:49:01.689Z,59.10
2022-08-16T17:51:28.888Z,59.70
2022-08-16T17:53:56.726Z,59.90
2022-08-16T17:56:23.894Z,59.80
2022-08-16T17:58:51.085Z,60.10
2022-08-16T18:01:24.075Z,60.50
2022-08-16T18:04:06.683Z,60.90
2022-08-16T18:06:37.860Z,61.00
2022-08-16T18:09:07.302Z,61.00
2022-08-16T18:11:41.251Z,60.90
2022-08-16T18:14:11.104Z,61.00
2022-08-16T18:16:38.795Z,61.10
2022-08-16T18:19:06.100Z,61.50
2022-08-16T18:21:51.773Z,61.80
2022-08-16T18:24:22.489Z,62.80
2022-08-16T18:26:49.646Z,62.50
2022-08-16T18:29:18.109Z,62.70
2022-08-16T18:31:45.355Z,62.60
2022-08-16T18:34:12.451Z,62.30
2022-08-16T18:36:40.197Z,62.80
2022-08-16T18:39:07.378Z,62.80
2022-08-16T18:41:37.131Z,63.00
2022-08-16T18:44:25.146Z,63.10
2022-08-16T18:46:55.058Z,63.20
2022-08-16T18:49:22.215Z,63.80
2022-08-16T18:51:50.825Z,63.90
2022-08-16T18:54:18.543Z,64.10
2022-08-16T18:56:53.766Z,63.50
2022-08-16T18:59:29.061Z,64.50
2022-08-16T19:02:00.534Z,64.60
2022-08-16T19:04:56.196Z,64.50
2022-08-16T19:07:30.561Z,65.40
2022-08-16T19:10:02.171Z,65.40
2022-08-16T19:12:37.758Z,66.50
2022-08-16T19:15:20.106Z,66.70
2022-08-16T19:17:47.887Z,67.10
2022-08-16T19:20:18.447Z,67.20
2022-08-16T19:25:49.193Z,67.50
2022-08-16T19:28:57.808Z,67.00
2022-08-16T19:31:26.453Z,66.90
2022-08-16T19:33:56.813Z,67.00
2022-08-16T19:36:36.002Z,67.20
2022-08-16T19:39:14.330Z,66.80
2022-08-16T19:41:52.091Z,67.20
2022-08-16T19:44:22.774Z,67.40
2022-08-16T19:46:51.051Z,69.20
2022-08-16T19:49:18.588Z,70.30
2022-08-16T19:51:47.958Z,69.30
2022-08-16T19:54:16.370Z,68.60
2022-08-16T19:56:43.940Z,69.20
2022-08-16T19:59:21.067Z,70.60
2022-08-16T20:01:52.636Z,70.50
2022-08-16T20:04:22.405Z,71.30
2022-08-16T20:06:52.576Z,72.10
2022-08-16T20:09:22.740Z,71.60
2022-08-16T20:11:52.932Z,72.20
2022-08-16T20:14:26.302Z,73.30
2022-08-16T20:17:00.193Z,74.10
2022-08-16T20:19:35.239Z,74.50
2022-08-16T20:23:02.577Z,74.30
2022-08-16T20:25:28.312Z,74.60
2022-08-16T20:27:57.752Z,75.30
2022-08-16T20:30:25.780Z,76.00
2022-08-16T20:32:54.255Z,76.10
2022-08-16T20:35:27.418Z,77.10
2022-08-16T20:37:56.465Z,78.00
2022-08-16T20:40:29.680Z,78.10
2022-08-16T20:43:10.998Z,78.50
2022-08-16T20:45:41.061Z,78.80
2022-08-16T20:48:08.527Z,79.00
2022-08-16T20:50:36.067Z,79.20
2022-08-16T20:53:05.095Z,79.90
2022-08-16T20:55:36.594Z,79.90
2022-08-16T20:58:04.003Z,80.10
2022-08-16T21:00:33.533Z,80.70
2022-08-16T21:03:12.313Z,81.20
2022-08-16T21:05:39.624Z,82.00
2022-08-16T21:08:50.347Z,82.20
2022-08-16T21:10:56.375Z,82.00
2022-08-16T21:13:25.717Z,82.10
2022-08-16T21:15:53.096Z,82.30
2022-08-16T21:18:20.170Z,83.00
2022-08-16T21:20:50.620Z,83.50
2022-08-16T21:23:17.937Z,83.90
2022-08-16T21:25:57.686Z,84.40
2022-08-16T21:28:38.990Z,84.80
2022-08-16T21:31:15.668Z,85.10
2022-08-16T21:33:44.807Z,85.50
2022-08-16T21:36:35.705Z,86.00
2022-08-16T21:39:06.175Z,86.50
2022-08-16T21:41:35.034Z,86.10
2022-08-16T21:44:02.238Z,86.20
2022-08-16T21:46:29.319Z,86.60
2022-08-16T21:48:56.439Z,87.40
2022-08-16T21:51:23.560Z,88.80
2022-08-16T21:53:50.677Z,89.10
2022-08-16T21:56:17.932Z,89.70
2022-08-16T21:58:46.661Z,90.00
2022-08-16T22:01:24.215Z,90.20
2022-08-16T22:04:03.524Z,90.50
2022-08-16T22:06:42.455Z,90.80
2022-08-16T22:09:12.983Z,91.30
2022-08-16T22:11:40.173Z,91.50
2022-08-16T22:14:07.920Z,91.60
2022-08-16T22:16:39.515Z,91.80
2022-08-16T22:19:06.718Z,92.10
2022-08-16T22:21:35.409Z,92.30
2022-08-16T22:24:02.861Z,92.70
2022-08-16T22:26:33.575Z,93.10
2022-08-16T22:29:06.157Z,93.50
2022-08-16T22:31:35.226Z,93.70
2022-08-16T22:34:03.336Z,94.10
2022-08-16T22:36:32.342Z,94.60
2022-08-16T22:39:03.624Z,94.90
2022-08-16T22:41:33.681Z,95.30
2022-08-16T22:44:03.416Z,95.30
2022-08-16T22:46:31.260Z,95.40
2022-08-16T22:48:58.973Z,95.60
2022-08-16T22:51:27.859Z,95.80
2022-08-16T22:53:56.671Z,96.30
2022-08-16T22:56:24.894Z,96.60
2022-08-16T22:58:52.507Z,97.00
2022-08-16T23:01:23.825Z,97.40
2022-08-16T23:03:55.451Z,97.70
2022-08-16T23:06:24.001Z,98.10
2022-08-16T23:08:51.733Z,98.30
2022-08-16T23:11:23.147Z,98.40
2022-08-16T23:13:54.520Z,98.80
2022-08-16T23:16:33.447Z,99.10
2022-08-16T23:19:09.153Z,99.40
2022-08-16T23:21:38.520Z,99.50
2022-08-16T23:24:08.270Z,99.80
2022-08-16T23:26:45.693Z,99.90
2022-08-16T23:29:24.750Z,99.90
2022-08-16T23:31:58.267Z,99.90
2022-08-16T23:34:28.335Z,99.90
2022-08-16T23:36:56.442Z,99.90
2022-08-16T23:39:23.919Z,99.90
2022-08-16T23:41:51.965Z,99.90
2022-08-16T23:44:55.517Z,99.90
2022-08-16T23:47:06.464Z,99.90
2022-08-16T23:50:01.990Z,99.90
2022-08-16T23:52:42.337Z,99.90
2022-08-16T23:55:09.168Z,99.90
2022-08-16T23:57:39.394Z,99.90
